Time;durP1;ratioP1;P1;durP2;ratioP2;P2;SDS_P1;SDS_P2;PMS_P1;PMS_P2;Temp;Humidity;BMP_temperature;BMP_pressure;BME280_temperature;BME280_humidity;BME280_pressure;Samples;Min_cycle;Max_cycle;Signal;HPM_P1;HPM_P2
2023/05/14 00:00:43;;;;;;;0.35;0.35;;;10.80;99.90;;;;;;5067964;28;20394;-76
2023/05/14 00:03:09;;;;;;;1.05;0.40;;;10.80;99.90;;;;;;5068702;28;20032;-76
2023/05/14 00:05:35;;;;;;;1.15;1.10;;;10.80;99.90;;;;;;5068429;28;20079;-76
2023/05/14 00:08:00;;;;;;;0.60;0.60;;;10.80;99.90;;;;;;5067960;28;20048;-75
2023/05/14 00:10:26;;;;;;;0.47;0.47;;;10.80;99.90;;;;;;5067508;28;20143;-76
2023/05/14 00:12:52;;;;;;;0.40;0.40;;;10.80;99.90;;;;;;5068221;28;20398;-75
2023/05/14 00:15:18;;;;;;;0.30;0.30;;;10.70;99.90;;;;;;5067340;28;20044;-75
2023/05/14 00:17:44;;;;;;;1.45;0.68;;;10.70;99.90;;;;;;5068293;28;20048;-75
2023/05/14 00:20:11;;;;;;;0.40;0.40;;;10.70;99.90;;;;;;5066846;28;20052;-76
2023/05/14 00:22:38;;;;;;;0.80;0.80;;;10.60;99.90;;;;;;5067639;28;20142;-76
2023/05/14 00:25:05;;;;;;;0.85;0.85;;;10.60;99.90;;;;;;5067893;28;20055;-76
2023/05/14 00:27:31;;;;;;;0.43;0.43;;;10.60;99.90;;;;;;5067199;28;20045;-75
2023/05/14 00:29:56;;;;;;;0.50;0.50;;;10.60;99.90;;;;;;5067405;28;20047;-76
2023/05/14 00:32:23;;;;;;;0.30;0.30;;;10.50;99.90;;;;;;5067524;28;20040;-76
2023/05/14 00:34:49;;;;;;;0.35;0.35;;;10.50;99.90;;;;;;5067027;28;20040;-75
2023/05/14 00:37:14;;;;;;;0.40;0.40;;;10.50;99.90;;;;;;5050350;28;20162;-75
2023/05/14 00:39:40;;;;;;;0.40;0.40;;;10.40;99.90;;;;;;5052159;28;20044;-75
2023/05/14 00:42:06;;;;;;;0.63;0.63;;;10.40;99.90;;;;;;5057734;28;20493;-76
2023/05/14 00:44:31;;;;;;;0.40;0.40;;;10.30;99.90;;;;;;5099373;28;20127;-76
2023/05/14 00:46:57;;;;;;;0.47;0.47;;;10.30;99.90;;;;;;5054833;28;20056;-76
2023/05/14 00:49:24;;;;;;;;;;;10.30;99.90;;;;;;5071213;28;20345;-75
2023/05/14 00:51:50;;;;;;;0.40;0.40;;;10.20;99.90;;;;;;5071278;28;20250;-76
2023/05/14 00:54:16;;;;;;;;;;;10.20;99.90;;;;;;5071488;28;20455;-76
2023/05/14 00:56:45;;;;;;;0.50;0.50;;;10.20;99.90;;;;;;5070859;28;19920;-77
2023/05/14 00:59:12;;;;;;;0.40;0.40;;;10.20;99.90;;;;;;5071638;28;20442;-76
2023/05/14 01:01:38;;;;;;;0.47;0.47;;;10.10;99.90;;;;;;5071315;28;20141;-76
2023/05/14 01:04:05;;;;;;;;;;;10.10;99.90;;;;;;5070763;28;20118;-76
2023/05/14 01:06:47;;;;;;;0.75;0.75;;;10.10;99.90;;;;;;5053772;28;19916;-77
2023/05/14 01:09:21;;;;;;;0.25;0.25;;;10.10;99.90;;;;;;5070705;28;20461;-76
2023/05/14 01:12:10;;;;;;;0.60;0.60;;;10.10;99.90;;;;;;5070817;28;20475;-77
2023/05/14 01:14:53;;;;;;;0.32;0.32;;;10.00;99.90;;;;;;5070046;28;20374;-76
2023/05/14 01:17:21;;;;;;;0.30;0.30;;;10.00;99.90;;;;;;5070229;28;20528;-76
2023/05/14 01:19:48;;;;;;;0.20;0.20;;;10.00;99.90;;;;;;5070046;28;20060;-76
2023/05/14 01:22:13;;;;;;;0.47;0.47;;;10.00;99.90;;;;;;5070161;28;20044;-75
2023/05/14 01:24:39;;;;;;;0.30;0.30;;;10.00;99.90;;;;;;5070536;28;20040;-77
2023/05/14 01:27:22;;;;;;;0.43;0.43;;;10.00;99.90;;;;;;5070152;28;20071;-77
2023/05/14 01:30:01;;;;;;;0.30;0.30;;;10.00;99.90;;;;;;5070670;28;20052;-76
2023/05/14 01:32:29;;;;;;;0.45;0.45;;;10.00;99.90;;;;;;5069988;28;20052;-76
2023/05/14 01:34:57;;;;;;;0.40;0.40;;;10.00;99.90;;;;;;5070248;28;20044;-76
2023/05/14 01:37:24;;;;;;;0.57;0.50;;;10.00;99.90;;;;;;5070640;28;20476;-76
2023/05/14 01:39:51;;;;;;;0.50;0.50;;;10.00;99.90;;;;;;5053718;28;20425;-76
2023/05/14 01:42:17;;;;;;;0.55;0.55;;;10.00;99.90;;;;;;5073979;28;20036;-76
2023/05/14 01:44:44;;;;;;;0.47;0.47;;;10.00;99.90;;;;;;5062958;28;20169;-76
2023/05/14 01:47:09;;;;;;;0.47;0.47;;;10.00;99.90;;;;;;5069975;28;20102;-76
2023/05/14 01:49:36;;;;;;;0.40;0.40;;;10.00;99.90;;;;;;5053329;28;20407;-76
2023/05/14 01:52:01;;;;;;;0.60;0.60;;;10.00;99.90;;;;;;5068666;28;20044;-76
2023/05/14 01:54:27;;;;;;;0.45;0.45;;;10.00;99.90;;;;;;5069620;28;20040;-76
2023/05/14 01:56:53;;;;;;;0.60;0.60;;;10.00;99.90;;;;;;5070954;28;20360;-76
2023/05/14 01:59:18;;;;;;;0.50;0.50;;;9.90;99.90;;;;;;5052612;28;20379;-76
2023/05/14 02:01:44;;;;;;;0.60;0.60;;;9.90;99.90;;;;;;5069655;28;20047;-76
2023/05/14 02:04:10;;;;;;;0.50;0.50;;;9.90;99.90;;;;;;5069707;28;20056;-76
2023/05/14 02:06:35;;;;;;;1.25;1.15;;;9.80;99.90;;;;;;5036521;28;20040;-76
2023/05/14 02:09:01;;;;;;;1.02;0.50;;;9.80;99.90;;;;;;5069906;28;20132;-76
2023/05/14 02:11:27;;;;;;;0.47;0.47;;;9.80;99.90;;;;;;5069410;28;20451;-76
2023/05/14 02:13:53;;;;;;;0.45;0.45;;;9.70;99.90;;;;;;5069661;28;20444;-76
2023/05/14 02:16:18;;;;;;;0.82;0.82;;;9.70;99.90;;;;;;5053005;28;20074;-76
2023/05/14 02:18:44;;;;;;;0.75;0.75;;;9.90;99.90;;;;;;5069833;28;20046;-76
2023/05/14 02:21:10;;;;;;;0.45;0.45;;;9.60;99.90;;;;;;5069357;28;20540;-77
2023/05/14 02:23:35;;;;;;;0.40;0.40;;;9.60;99.90;;;;;;5069634;28;20055;-76
2023/05/14 02:26:01;;;;;;;0.70;0.70;;;9.60;99.90;;;;;;5052802;28;20043;-76
2023/05/14 02:28:27;;;;;;;0.40;0.40;;;9.60;99.90;;;;;;5052595;28;20079;-76
2023/05/14 02:30:58;;;;;;;0.40;0.40;;;9.60;99.90;;;;;;5069719;28;20044;-76
2023/05/14 02:33:23;;;;;;;0.65;0.65;;;9.60;99.90;;;;;;5069138;28;20036;-76
2023/05/14 02:35:49;;;;;;;0.50;0.50;;;9.60;99.90;;;;;;5053451;28;20090;-76
2023/05/14 02:38:15;;;;;;;0.40;0.40;;;9.60;99.90;;;;;;5069719;28;20495;-76
2023/05/14 02:40:41;;;;;;;0.40;0.40;;;9.50;99.90;;;;;;5052602;28;20090;-77
2023/05/14 02:43:06;;;;;;;0.40;0.40;;;9.50;99.90;;;;;;5063546;28;20485;-76
2023/05/14 02:45:32;;;;;;;0.30;0.30;;;9.60;99.90;;;;;;5088542;28;20402;-76
2023/05/14 02:47:57;;;;;;;0.70;0.70;;;9.60;99.90;;;;;;5068973;28;20127;-76
2023/05/14 02:50:23;;;;;;;0.40;0.40;;;9.60;99.90;;;;;;5052011;28;20052;-76
2023/05/14 02:52:49;;;;;;;0.60;0.60;;;9.60;99.90;;;;;;5069800;28;20040;-77
2023/05/14 02:55:15;;;;;;;0.60;0.60;;;9.60;99.90;;;;;;5068800;28;20048;-76
2023/05/14 02:57:40;;;;;;;0.40;0.40;;;9.60;99.90;;;;;;5068536;28;20098;-76
2023/05/14 03:00:07;;;;;;;0.40;0.40;;;9.60;99.90;;;;;;5068712;28;20037;-76
2023/05/14 03:02:34;;;;;;;1.02;1.02;;;9.60;99.90;;;;;;5068034;28;20504;-75
2023/05/14 03:05:00;;;;;;;0.57;0.57;;;9.60;99.90;;;;;;5069170;28;20051;-76
2023/05/14 03:07:26;;;;;;;;;;;9.50;99.90;;;;;;5069957;28;20040;-76
2023/05/14 03:09:51;;;;;;;0.65;0.65;;;9.50;99.90;;;;;;5069654;28;20285;-75
2023/05/14 03:12:18;;;;;;;0.40;0.40;;;9.50;99.90;;;;;;5052923;28;20048;-75
2023/05/14 03:14:43;;;;;;;0.43;0.43;;;9.60;99.90;;;;;;5068981;28;20106;-76
2023/05/14 03:17:09;;;;;;;0.73;0.60;;;9.50;99.90;;;;;;5052413;28;20454;-77
2023/05/14 03:19:35;;;;;;;0.43;0.43;;;9.60;99.90;;;;;;5067575;28;20543;-75
2023/05/14 03:22:00;;;;;;;0.50;0.50;;;9.50;99.90;;;;;;5068439;28;20398;-77
2023/05/14 03:24:26;;;;;;;0.40;0.40;;;9.50;99.90;;;;;;5068455;28;20496;-77
2023/05/14 03:26:52;;;;;;;0.40;0.40;;;9.50;99.90;;;;;;5032641;28;20037;-77
2023/05/14 03:29:18;;;;;;;0.55;0.55;;;9.50;99.90;;;;;;5032331;28;20056;-76
2023/05/14 03:31:44;;;;;;;0.40;0.40;;;9.60;99.90;;;;;;5032047;28;20060;-77
2023/05/14 03:34:10;;;;;;;0.70;0.70;;;9.40;99.90;;;;;;5058216;28;20512;-75
2023/05/14 03:36:37;;;;;;;0.47;0.47;;;9.40;99.90;;;;;;5067868;28;20052;-76
2023/05/14 03:39:05;;;;;;;0.40;0.40;;;9.40;99.90;;;;;;5050934;28;20048;-77
2023/05/14 03:41:31;;;;;;;0.50;0.50;;;9.50;99.90;;;;;;5067186;28;20055;-75
2023/05/14 03:43:57;;;;;;;0.40;0.40;;;9.50;99.90;;;;;;5081952;28;20048;-76
2023/05/14 03:46:23;;;;;;;0.40;0.40;;;9.50;99.90;;;;;;5051604;28;20386;-77
2023/05/14 03:48:48;;;;;;;0.30;0.30;;;9.60;99.90;;;;;;5069076;28;20482;-76
2023/05/14 03:51:14;;;;;;;0.40;0.40;;;9.60;99.90;;;;;;5055431;28;20079;-76
2023/05/14 03:53:40;;;;;;;1.08;1.08;;;9.60;99.90;;;;;;5080177;28;20041;-76
2023/05/14 03:56:06;;;;;;;0.40;0.40;;;9.60;99.90;;;;;;5051382;28;20490;-76
2023/05/14 03:58:32;;;;;;;0.60;0.60;;;9.60;99.90;;;;;;5067381;28;20090;-76
2023/05/14 04:00:57;;;;;;;0.60;0.60;;;9.60;99.90;;;;;;5067847;28;20044;-76
2023/05/14 04:03:23;;;;;;;0.93;0.82;;;9.60;99.90;;;;;;5068249;28;20041;-76
2023/05/14 04:05:50;;;;;;;1.27;0.77;;;9.50;99.90;;;;;;5067633;28;20048;-77
2023/05/14 04:08:15;;;;;;;1.33;0.60;;;9.50;99.90;;;;;;5067953;28;20079;-76
2023/05/14 04:10:42;;;;;;;0.57;0.57;;;9.50;99.90;;;;;;5067610;28;20084;-76
2023/05/14 04:13:08;;;;;;;0.40;0.40;;;9.50;99.90;;;;;;5068735;28;20881;-76
2023/05/14 04:15:34;;;;;;;0.32;0.32;;;9.50;99.90;;;;;;5054360;28;20083;-76
2023/05/14 04:18:00;;;;;;;1.17;1.10;;;9.50;99.90;;;;;;5074181;28;20052;-76
2023/05/14 04:20:26;;;;;;;0.52;0.52;;;9.60;99.90;;;;;;5071746;28;20049;-76
2023/05/14 04:22:53;;;;;;;0.50;0.50;;;9.60;99.90;;;;;;5074132;28;20515;-77
2023/05/14 04:25:18;;;;;;;1.58;0.80;;;9.70;99.90;;;;;;5073760;28;20368;-76
2023/05/14 04:27:44;;;;;;;0.73;0.73;;;9.80;99.90;;;;;;5071512;28;20106;-76
2023/05/14 04:30:10;;;;;;;0.30;0.30;;;9.80;99.90;;;;;;5071696;28;20040;-76
2023/05/14 04:32:36;;;;;;;;;;;9.90;99.90;;;;;;5071804;28;20485;-77
2023/05/14 04:35:03;;;;;;;2.03;1.95;;;9.90;99.90;;;;;;5071854;28;19928;-76
2023/05/14 04:37:29;;;;;;;0.40;0.40;;;9.90;99.90;;;;;;5071852;28;20456;-76
2023/05/14 04:39:55;;;;;;;0.45;0.45;;;10.00;99.90;;;;;;5054724;28;20053;-77
2023/05/14 04:42:21;;;;;;;0.57;0.57;;;10.00;99.90;;;;;;5076562;28;20040;-76
2023/05/14 04:44:47;;;;;;;0.45;0.45;;;10.10;99.90;;;;;;5062371;28;20040;-76
2023/05/14 04:47:13;;;;;;;0.40;0.40;;;10.20;99.90;;;;;;5038515;28;20706;-76
2023/05/14 04:49:38;;;;;;;0.45;0.45;;;10.30;99.90;;;;;;5070846;28;20044;-76
2023/05/14 04:52:05;;;;;;;0.65;0.65;;;10.40;99.90;;;;;;5082346;28;20048;-76
2023/05/14 04:54:31;;;;;;;0.25;0.25;;;10.50;99.90;;;;;;5076122;28;20088;-76
2023/05/14 04:56:56;;;;;;;2.05;1.55;;;10.60;99.90;;;;;;5054252;28;20091;-76
2023/05/14 04:59:22;;;;;;;0.38;0.38;;;10.60;99.90;;;;;;5071366;28;20070;-76
2023/05/14 05:01:48;;;;;;;0.38;0.38;;;10.70;99.90;;;;;;5054054;28;20048;-76
2023/05/14 05:04:13;;;;;;;0.50;0.50;;;10.70;99.90;;;;;;5054539;28;20045;-76
2023/05/14 05:06:39;;;;;;;0.77;0.77;;;10.80;99.90;;;;;;5070797;28;20045;-77
2023/05/14 05:09:05;;;;;;;0.40;0.40;;;10.80;99.90;;;;;;5059037;28;20036;-76
2023/05/14 05:11:30;;;;;;;0.50;0.50;;;10.90;99.90;;;;;;5071183;28;20385;-76
2023/05/14 05:13:56;;;;;;;0.35;0.35;;;10.90;99.90;;;;;;5054701;28;20437;-76
2023/05/14 05:16:22;;;;;;;0.22;0.22;;;11.00;99.90;;;;;;5071786;28;20052;-77
2023/05/14 05:18:47;;;;;;;0.47;0.47;;;11.10;99.90;;;;;;5054272;28;20044;-76
2023/05/14 05:21:13;;;;;;;0.73;0.73;;;11.20;99.90;;;;;;5070941;28;20060;-77
2023/05/14 05:23:39;;;;;;;0.40;0.40;;;11.30;99.90;;;;;;5070716;28;20060;-76
2023/05/14 05:26:04;;;;;;;0.30;0.30;;;11.30;99.90;;;;;;5070377;28;20496;-77
2023/05/14 05:28:30;;;;;;;0.95;0.95;;;11.50;99.90;;;;;;5071018;28;20082;-77
2023/05/14 05:30:56;;;;;;;0.45;0.45;;;11.60;99.90;;;;;;5070841;28;20048;-77
2023/05/14 05:33:21;;;;;;;0.50;0.50;;;11.70;99.90;;;;;;5071055;28;20047;-77
2023/05/14 05:35:48;;;;;;;0.40;0.40;;;11.80;99.90;;;;;;5054016;28;20121;-77
2023/05/14 05:38:15;;;;;;;0.65;0.65;;;11.90;99.90;;;;;;5071101;28;20045;-77
2023/05/14 05:40:40;;;;;;;;;;;12.00;99.90;;;;;;5072091;28;20044;-76
2023/05/14 05:43:06;;;;;;;0.40;0.40;;;12.10;99.90;;;;;;5081497;28;19927;-77
2023/05/14 05:45:31;;;;;;;0.50;0.50;;;12.20;99.90;;;;;;5107823;28;20097;-78
2023/05/14 05:47:58;;;;;;;0.57;0.57;;;12.30;99.90;;;;;;5087838;28;20072;-78
2023/05/14 05:50:23;;;;;;;;;;;12.40;99.90;;;;;;5070875;28;20139;-77
2023/05/14 05:52:49;;;;;;;0.30;0.30;;;12.40;99.90;;;;;;5085861;28;20358;-78
2023/05/14 05:55:15;;;;;;;0.80;0.80;;;12.50;99.90;;;;;;5053365;28;20155;-77
2023/05/14 05:57:40;;;;;;;0.47;0.47;;;12.70;99.90;;;;;;5069922;28;20052;-78
2023/05/14 06:00:12;;;;;;;0.35;0.35;;;12.80;99.90;;;;;;5069895;28;20063;-77
2023/05/14 06:02:39;;;;;;;0.60;0.60;;;13.00;99.90;;;;;;5054403;28;20040;-78
2023/05/14 06:05:06;;;;;;;0.52;0.50;;;13.10;99.90;;;;;;5070156;28;20048;-77
2023/05/14 06:07:33;;;;;;;0.30;0.30;;;13.30;99.90;;;;;;5053748;28;20129;-77
2023/05/14 06:09:59;;;;;;;0.50;0.50;;;13.30;99.90;;;;;;5070040;28;20766;-77
2023/05/14 06:12:24;;;;;;;0.50;0.50;;;13.40;99.90;;;;;;5070274;28;20147;-77
2023/05/14 06:14:50;;;;;;;0.60;0.60;;;13.50;99.90;;;;;;5068830;28;20378;-77
2023/05/14 06:17:16;;;;;;;0.30;0.30;;;13.60;99.90;;;;;;5069592;28;20047;-78
2023/05/14 06:19:42;;;;;;;0.30;0.30;;;13.70;99.90;;;;;;5069529;28;20056;-78
2023/05/14 06:22:08;;;;;;;0.40;0.40;;;13.80;99.90;;;;;;5052337;28;20481;-77
2023/05/14 06:24:33;;;;;;;0.40;0.40;;;13.90;99.90;;;;;;5069584;28;20126;-77
2023/05/14 06:26:59;;;;;;;;;;;14.10;99.90;;;;;;5069097;28;20047;-78
2023/05/14 06:29:25;;;;;;;0.32;0.32;;;14.20;99.90;;;;;;5069448;28;19920;-78
2023/05/14 06:31:50;;;;;;;0.25;0.25;;;14.40;99.90;;;;;;5068453;28;20044;-78
2023/05/14 06:34:16;;;;;;;0.32;0.32;;;14.60;99.90;;;;;;5069000;28;20470;-78
2023/05/14 06:36:41;;;;;;;;;;;14.70;99.90;;;;;;5070032;28;20040;-75
2023/05/14 06:39:07;;;;;;;0.30;0.30;;;14.80;99.90;;;;;;5051660;28;19964;-75
2023/05/14 06:41:33;;;;;;;0.35;0.35;;;14.90;99.90;;;;;;5069658;28;20045;-77
2023/05/14 06:43:58;;;;;;;;;;;15.00;99.90;;;;;;5083836;28;20044;-76
2023/05/14 06:46:24;;;;;;;0.55;0.50;;;15.00;99.90;;;;;;5069516;28;19968;-77
2023/05/14 06:48:50;;;;;;;0.40;0.40;;;15.10;99.90;;;;;;5069237;28;20066;-77
2023/05/14 06:51:15;;;;;;;0.32;0.32;;;15.10;99.90;;;;;;5069789;28;20044;-76
2023/05/14 06:53:41;;;;;;;0.57;0.57;;;15.20;99.90;;;;;;5069461;28;20163;-76
2023/05/14 06:56:07;;;;;;;;;;;15.30;99.90;;;;;;5069067;28;20044;-76
2023/05/14 06:58:32;;;;;;;0.30;0.30;;;15.30;99.90;;;;;;5069190;28;19921;-76
2023/05/14 07:00:58;;;;;;;;;;;15.30;99.90;;;;;;5054800;28;20100;-77
2023/05/14 07:03:24;;;;;;;0.30;0.30;;;15.30;99.90;;;;;;5070843;28;19942;-77
2023/05/14 07:05:50;;;;;;;;;;;15.40;99.90;;;;;;5068721;28;20381;-75
2023/05/14 07:08:16;;;;;;;0.70;0.70;;;15.40;99.90;;;;;;5068809;28;19960;-76
2023/05/14 07:10:42;;;;;;;0.50;0.50;;;15.40;99.90;;;;;;5068934;28;20118;-76
2023/05/14 07:13:07;;;;;;;;;;;15.40;99.90;;;;;;5069075;28;20102;-76
2023/05/14 07:15:33;;;;;;;0.98;0.75;;;15.40;99.90;;;;;;5068903;28;19931;-77
2023/05/14 07:17:58;;;;;;;;;;;15.50;99.90;;;;;;5052137;28;20482;-76
2023/05/14 07:20:24;;;;;;;0.65;0.40;;;15.50;99.90;;;;;;5068323;28;19928;-76
2023/05/14 07:22:51;;;;;;;0.43;0.43;;;15.50;99.90;;;;;;5068397;28;20127;-76
2023/05/14 07:25:17;;;;;;;0.52;0.52;;;15.60;99.90;;;;;;5045454;28;20570;-76
2023/05/14 07:27:43;;;;;;;0.65;0.65;;;15.60;99.90;;;;;;5048950;28;20128;-76
2023/05/14 07:30:08;;;;;;;0.65;0.65;;;15.60;99.90;;;;;;5048301;28;20045;-76
2023/05/14 07:32:34;;;;;;;;;;;15.60;99.90;;;;;;5053992;28;20126;-76
2023/05/14 07:35:00;;;;;;;0.95;0.95;;;15.70;99.90;;;;;;5052300;28;19920;-76
2023/05/14 07:37:26;;;;;;;;;;;15.70;99.90;;;;;;5069512;28;20394;-76
2023/05/14 07:39:52;;;;;;;0.55;0.47;;;15.60;99.90;;;;;;5068899;28;19925;-76
2023/05/14 07:42:18;;;;;;;0.40;0.40;;;15.60;99.90;;;;;;5076400;28;20323;-74
2023/05/14 07:44:44;;;;;;;1.17;1.15;;;15.50;99.90;;;;;;5083725;28;20051;-76
2023/05/14 07:47:09;;;;;;;0.85;0.85;;;15.50;99.90;;;;;;5051813;28;20040;-76
2023/05/14 07:49:35;;;;;;;;;;;15.50;99.90;;;;;;5069051;28;20076;-77
2023/05/14 07:52:01;;;;;;;0.90;0.85;;;15.50;99.90;;;;;;5069081;28;19924;-77
2023/05/14 07:54:27;;;;;;;1.10;1.00;;;15.50;99.90;;;;;;5069374;28;20248;-76
2023/05/14 07:56:52;;;;;;;;;;;15.50;99.90;;;;;;5052066;28;20051;-77
2023/05/14 07:59:18;;;;;;;0.85;0.85;;;15.50;99.90;;;;;;5068871;28;20018;-77
2023/05/14 08:01:43;;;;;;;0.20;0.20;;;15.50;99.90;;;;;;5068254;28;20045;-77
2023/05/14 08:04:14;;;;;;;;;;;15.50;99.90;;;;;;5068241;28;20040;-77
2023/05/14 08:06:39;;;;;;;0.77;0.70;;;15.50;99.90;;;;;;5067977;28;20469;-77
2023/05/14 08:09:05;;;;;;;2.13;0.43;;;15.60;99.90;;;;;;5067658;28;20162;-77
2023/05/14 08:11:31;;;;;;;;;;;15.80;99.90;;;;;;5069230;28;20482;-76
2023/05/14 08:13:56;;;;;;;0.40;0.40;;;16.00;99.90;;;;;;5068275;28;19916;-76
2023/05/14 08:16:23;;;;;;;;;;;16.20;99.90;;;;;;5052053;28;20618;-76
2023/05/14 08:18:49;;;;;;;0.63;0.63;;;16.30;99.90;;;;;;5068206;28;19975;-76
2023/05/14 08:21:14;;;;;;;0.25;0.25;;;16.40;99.90;;;;;;5067317;28;20384;-77
2023/05/14 08:23:40;;;;;;;;;;;16.50;99.90;;;;;;5068681;28;20098;-77
2023/05/14 08:26:06;;;;;;;0.63;0.63;;;16.60;99.90;;;;;;5054293;28;20441;-76
2023/05/14 08:28:31;;;;;;;;;;;16.70;99.90;;;;;;5034514;28;20425;-77
2023/05/14 08:30:57;;;;;;;0.45;0.45;;;16.90;99.90;;;;;;5067679;28;19917;-76
2023/05/14 08:33:23;;;;;;;;;;;17.00;99.90;;;;;;5034664;28;20393;-76
2023/05/14 08:35:53;;;;;;;0.40;0.40;;;17.10;99.90;;;;;;5067749;28;20352;-76
2023/05/14 08:38:19;;;;;;;0.55;0.50;;;17.10;99.90;;;;;;5068011;28;20052;-76
2023/05/14 08:40:56;;;;;;;0.70;0.65;;;17.00;99.90;;;;;;5050952;28;20053;-76
2023/05/14 08:43:25;;;;;;;0.55;0.55;;;17.00;99.90;;;;;;5081302;28;20036;-76
2023/05/14 08:46:00;;;;;;;0.50;0.50;;;17.00;99.90;;;;;;5067843;28;20119;-76
2023/05/14 08:48:32;;;;;;;0.77;0.77;;;16.90;99.90;;;;;;5054735;28;20037;-77
2023/05/14 08:50:58;;;;;;;1.00;0.63;;;16.80;99.90;;;;;;5067483;28;20028;-76
2023/05/14 08:53:24;;;;;;;1.65;0.70;;;16.80;99.90;;;;;;5067591;28;20043;-76
2023/05/14 08:55:52;;;;;;;;;;;16.80;99.90;;;;;;5068000;28;20133;-77
2023/05/14 08:58:18;;;;;;;0.52;0.52;;;16.90;99.90;;;;;;5066789;28;19942;-76
2023/05/14 09:00:44;;;;;;;0.28;0.28;;;17.00;99.90;;;;;;5068599;28;20040;-76
2023/05/14 09:03:11;;;;;;;;;;;17.20;99.90;;;;;;5054770;28;20486;-76
2023/05/14 09:05:37;;;;;;;1.05;0.90;;;17.30;99.90;;;;;;5070944;28;19999;-76
2023/05/14 09:08:02;;;;;;;;;;;17.30;99.90;;;;;;5071123;28;20090;-77
2023/05/14 09:10:28;;;;;;;0.25;0.25;;;17.30;99.90;;;;;;5070935;28;19967;-76
2023/05/14 09:12:54;;;;;;;;;;;17.50;99.90;;;;;;5071692;28;20048;-76
2023/05/14 09:15:19;;;;;;;1.02;0.70;;;17.50;99.90;;;;;;5070329;28;19920;-77
2023/05/14 09:17:46;;;;;;;;;;;17.50;99.90;;;;;;5071430;28;20052;-77
2023/05/14 09:20:13;;;;;;;0.50;0.50;;;17.50;99.90;;;;;;5070218;28;19973;-75
2023/05/14 09:22:39;;;;;;;0.30;0.30;;;17.50;99.90;;;;;;5071085;28;20044;-77
2023/05/14 09:25:13;;;;;;;;;;;17.60;99.90;;;;;;5072383;28;20538;-77
2023/05/14 09:27:39;;;;;;;0.50;0.50;;;17.70;99.90;;;;;;5054719;28;20321;-76
2023/05/14 09:30:05;;;;;;;;;;;17.80;99.90;;;;;;5054081;28;20139;-75
2023/05/14 09:32:46;;;;;;;0.30;0.30;;;17.80;99.90;;;;;;5070990;28;19970;-75
2023/05/14 09:35:17;;;;;;;0.40;0.40;;;17.70;99.90;;;;;;5069880;28;20135;-76
2023/05/14 09:37:47;;;;;;;1.38;1.27;;;17.70;99.90;;;;;;5070349;28;20055;-77
2023/05/14 09:40:13;;;;;;;0.47;0.47;;;17.90;99.90;;;;;;5070188;28;20044;-76
2023/05/14 09:42:40;;;;;;;1.02;1.00;;;17.90;99.90;;;;;;5077863;28;20047;-75
2023/05/14 09:45:09;;;;;;;0.30;0.30;;;17.90;99.90;;;;;;5077220;28;20098;-75
2023/05/14 09:47:38;;;;;;;0.82;0.50;;;18.00;99.90;;;;;;5070601;28;20055;-77
2023/05/14 09:50:05;;;;;;;0.30;0.30;;;18.20;99.90;;;;;;5049869;28;20513;-76
2023/05/14 09:52:31;;;;;;;0.75;0.75;;;18.50;99.90;;;;;;5066803;28;20512;-77
2023/05/14 09:54:57;;;;;;;1.55;0.77;;;18.80;99.90;;;;;;5069647;28;20048;-77
2023/05/14 09:57:23;;;;;;;1.13;0.70;;;19.00;99.90;;;;;;5069629;28;20049;-76
2023/05/14 09:59:48;;;;;;;;;;;19.00;99.90;;;;;;5072137;28;20045;-77
2023/05/14 10:02:39;;;;;;;0.30;0.30;;;19.00;99.90;;;;;;5069866;28;19924;-76
2023/05/14 10:05:06;;;;;;;0.40;0.40;;;19.20;99.90;;;;;;5069445;28;20135;-76
2023/05/14 10:08:00;;;;;;;0.50;0.50;;;19.60;99.90;;;;;;5052521;28;20119;-77
2023/05/14 10:10:27;;;;;;;1.55;1.40;;;19.90;99.90;;;;;;5068445;28;20057;-77
2023/05/14 10:12:59;;;;;;;1.85;1.75;;;20.00;99.90;;;;;;5069196;28;20363;-76
2023/05/14 10:15:50;;;;;;;1.08;1.08;;;20.10;99.90;;;;;;5069710;28;20048;-77
2023/05/14 10:18:18;;;;;;;0.85;0.85;;;20.10;99.90;;;;;;5069498;28;20045;-77
2023/05/14 10:20:51;;;;;;;0.40;0.40;;;20.20;99.90;;;;;;5069533;28;20185;-77
2023/05/14 10:23:17;;;;;;;1.02;0.98;;;20.20;99.90;;;;;;5070647;28;20071;-77
2023/05/14 10:25:44;;;;;;;0.40;0.40;;;20.40;99.90;;;;;;5053243;28;20086;-77
2023/05/14 10:28:10;;;;;;;0.40;0.40;;;20.40;99.90;;;;;;5069619;28;20115;-77
2023/05/14 10:30:48;;;;;;;0.55;0.55;;;20.30;99.90;;;;;;5069656;28;20052;-77
2023/05/14 10:33:15;;;;;;;0.30;0.30;;;20.20;99.90;;;;;;5068509;28;20101;-77
2023/05/14 10:35:59;;;;;;;0.45;0.45;;;20.10;99.90;;;;;;5053110;28;20563;-77
2023/05/14 10:38:27;;;;;;;0.68;0.68;;;20.00;99.90;;;;;;5069044;28;20060;-77
2023/05/14 10:41:00;;;;;;;0.30;0.30;;;20.00;99.90;;;;;;5069397;28;20044;-77
2023/05/14 10:43:30;;;;;;;0.82;0.82;;;20.10;99.90;;;;;;5083436;28;20075;-77
2023/05/14 10:45:57;;;;;;;0.70;0.70;;;20.20;99.90;;;;;;5049047;28;20068;-77
2023/05/14 10:48:24;;;;;;;0.30;0.30;;;20.40;99.90;;;;;;5054725;28;20049;-77
2023/05/14 10:50:51;;;;;;;1.27;0.93;;;20.40;99.90;;;;;;5068707;28;20455;-77
2023/05/14 10:53:17;;;;;;;0.28;0.28;;;20.60;99.90;;;;;;5083572;28;20090;-77
2023/05/14 10:55:43;;;;;;;1.85;0.95;;;20.80;99.90;;;;;;5068573;28;20052;-77
2023/05/14 10:58:10;;;;;;;0.63;0.63;;;21.10;99.90;;;;;;5068572;28;20048;-77
2023/05/14 11:00:37;;;;;;;0.52;0.52;;;21.20;99.90;;;;;;5068828;28;20051;-77
2023/05/14 11:03:04;;;;;;;0.77;0.77;;;21.20;99.90;;;;;;5069259;28;20626;-77
2023/05/14 11:05:31;;;;;;;0.60;0.60;;;21.10;99.90;;;;;;5072027;28;20036;-75
2023/05/14 11:07:57;;;;;;;0.52;0.52;;;21.30;99.90;;;;;;5070963;28;20051;-77
2023/05/14 11:10:30;;;;;;;0.65;0.63;;;21.50;99.90;;;;;;5069581;28;20055;-77
2023/05/14 11:12:57;;;;;;;0.30;0.30;;;21.60;99.90;;;;;;5069847;28;20041;-77
2023/05/14 11:15:24;;;;;;;0.45;0.45;;;21.70;99.90;;;;;;5068604;28;20044;-78
2023/05/14 11:17:51;;;;;;;0.40;0.40;;;22.00;99.90;;;;;;5070114;28;20514;-77
2023/05/14 11:20:18;;;;;;;0.30;0.30;;;22.20;99.90;;;;;;5067605;28;20048;-77
2023/05/14 11:22:46;;;;;;;0.40;0.40;;;22.50;99.90;;;;;;5067752;28;20052;-77
2023/05/14 11:25:13;;;;;;;0.20;0.20;;;22.70;99.90;;;;;;5068335;28;20553;-77
2023/05/14 11:27:40;;;;;;;0.52;0.52;;;22.60;99.90;;;;;;5068823;28;20410;-77
2023/05/14 11:30:19;;;;;;;0.30;0.30;;;22.60;99.90;;;;;;5068781;28;20044;-77
2023/05/14 11:32:46;;;;;;;0.30;0.30;;;22.80;99.90;;;;;;5068409;28;20052;-77
2023/05/14 11:35:13;;;;;;;0.73;0.73;;;23.00;99.90;;;;;;5069857;28;20529;-77
2023/05/14 11:37:39;;;;;;;0.40;0.40;;;22.90;99.90;;;;;;5068662;28;20355;-77
2023/05/14 11:40:08;;;;;;;0.20;0.20;;;22.90;99.90;;;;;;5051469;28;20486;-77
2023/05/14 11:42:36;;;;;;;0.45;0.45;;;23.00;99.90;;;;;;5073785;28;20102;-77
2023/05/14 11:45:02;;;;;;;0.25;0.25;;;23.00;99.90;;;;;;5074502;28;20040;-77
2023/05/14 11:47:29;;;;;;;0.30;0.30;;;23.00;99.90;;;;;;5067981;28;20041;-77
2023/05/14 11:49:54;;;;;;;0.35;0.35;;;23.00;99.90;;;;;;5068293;28;20043;-77
2023/05/14 11:52:20;;;;;;;0.35;0.35;;;23.00;99.90;;;;;;5032831;28;20132;-76
2023/05/14 11:54:48;;;;;;;0.30;0.30;;;23.10;99.90;;;;;;5049024;28;20048;-77
2023/05/14 11:57:19;;;;;;;0.95;0.85;;;23.00;99.90;;;;;;5067190;28;20080;-77
2023/05/14 11:59:46;;;;;;;0.63;0.63;;;23.10;99.90;;;;;;5067763;28;20087;-76
2023/05/14 12:02:13;;;;;;;0.30;0.30;;;23.10;99.90;;;;;;5067571;28;20335;-76
2023/05/14 12:04:40;;;;;;;1.27;0.70;;;23.20;99.30;;;;;;5068291;28;20048;-77
2023/05/14 12:07:11;;;;;;;0.20;0.20;;;23.40;97.20;;;;;;5069397;28;20114;-76
2023/05/14 12:09:48;;;;;;;0.20;0.20;;;23.70;94.60;;;;;;5067645;28;20067;-77
2023/05/14 12:12:18;;;;;;;0.20;0.20;;;23.70;93.30;;;;;;5067515;28;20045;-76
2023/05/14 12:14:44;;;;;;;0.10;0.10;;;23.70;92.60;;;;;;5068685;28;20048;-76
2023/05/14 12:17:22;;;;;;;0.30;0.30;;;23.80;93.90;;;;;;5067465;28;20584;-76
2023/05/14 12:19:51;;;;;;;0.20;0.20;;;24.00;96.40;;;;;;5067324;28;20047;-76
2023/05/14 12:22:21;;;;;;;0.38;0.38;;;24.20;96.60;;;;;;5068521;28;20060;-76
2023/05/14 12:24:57;;;;;;;0.40;0.40;;;24.10;92.30;;;;;;5068143;28;20485;-76
2023/05/14 12:27:27;;;;;;;0.10;0.10;;;24.10;92.70;;;;;;5067658;28;20040;-76
2023/05/14 12:30:04;;;;;;;0.30;0.30;;;24.20;97.90;;;;;;5067087;28;20515;-75
2023/05/14 12:32:31;;;;;;;0.70;0.65;;;24.30;86.10;;;;;;5067820;28;20059;-76
2023/05/14 12:34:56;;;;;;;0.20;0.20;;;24.40;90.70;;;;;;5068465;28;20583;-76
2023/05/14 12:37:23;;;;;;;0.20;0.20;;;24.50;90.10;;;;;;5070669;28;20048;-76
2023/05/14 12:39:48;;;;;;;0.35;0.35;;;24.40;84.80;;;;;;5072260;28;20066;-76
2023/05/14 12:42:15;;;;;;;1.00;0.45;;;24.30;99.90;;;;;;5058940;28;20051;-76
2023/05/14 12:44:41;;;;;;;0.20;0.20;;;24.20;99.90;;;;;;5081031;28;20094;-76
2023/05/14 12:47:07;;;;;;;0.57;0.57;;;24.00;87.90;;;;;;5072734;28;20048;-76
2023/05/14 12:49:32;;;;;;;0.40;0.40;;;23.80;84.60;;;;;;5071183;28;20041;-76
2023/05/14 12:51:58;;;;;;;0.10;0.10;;;23.70;85.50;;;;;;5070768;28;20077;-76
2023/05/14 12:54:24;;;;;;;0.45;0.45;;;23.80;90.10;;;;;;5054266;28;20399;-76
2023/05/14 12:56:49;;;;;;;0.43;0.43;;;24.10;92.20;;;;;;5071592;28;20063;-76